Aviation Digital Data Service (ADDS)

Output produced by METARs form (0910 UTC 24 March 2019)
found at http://www.aviationweather.gov/metar/data/
 
METAR text: LROP 240900Z 23010KT CAVOK 14/M11 Q1023 NOSIG
Conditions at: LROP (BUCHAREST/OTOPEN, RO) observed 0900 UTC 24 March 2019
Temperature: 14.0°C (57°F)
Dewpoint: -11.0°C (12°F) [RH = 17%]
Pressure (altimeter): 30.21 inches Hg (1023.0 mb)
Winds: from the SW (230 degrees) at 12 MPH (10 knots; 5.1 m/s)
Visibility: 6 or more miles (10+ km)
Ceiling: ceiling and visibility are OK
Clouds: unknown
Weather: no significant weather observed at this time

METAR text: LROP 240830Z 24010KT CAVOK 13/M11 Q1023 NOSIG
Conditions at: LROP (BUCHAREST/OTOPEN, RO) observed 0830 UTC 24 March 2019
Temperature: 13.0°C (55°F)
Dewpoint: -11.0°C (12°F) [RH = 18%]
Pressure (altimeter): 30.21 inches Hg (1023.0 mb)
Winds: from the WSW (240 degrees) at 12 MPH (10 knots; 5.1 m/s)
Visibility: 6 or more miles (10+ km)
Ceiling: ceiling and visibility are OK
Clouds: unknown
Weather: no significant weather observed at this time

METAR text: LROP 240800Z 24009KT CAVOK 13/M10 Q1023 NOSIG
Conditions at: LROP (BUCHAREST/OTOPEN, RO) observed 0800 UTC 24 March 2019
Temperature: 13.0°C (55°F)
Dewpoint: -10.0°C (14°F) [RH = 19%]
Pressure (altimeter): 30.21 inches Hg (1023.0 mb)
Winds: from the WSW (240 degrees) at 10 MPH (9 knots; 4.6 m/s)
Visibility: 6 or more miles (10+ km)
Ceiling: ceiling and visibility are OK
Clouds: unknown
Weather: no significant weather observed at this time

METAR text: LROP 240730Z 25008KT CAVOK 12/M11 Q1023 NOSIG
Conditions at: LROP (BUCHAREST/OTOPEN, RO) observed 0730 UTC 24 March 2019
Temperature: 12.0°C (54°F)
Dewpoint: -11.0°C (12°F) [RH = 19%]
Pressure (altimeter): 30.21 inches Hg (1023.0 mb)
Winds: from the WSW (250 degrees) at 9 MPH (8 knots; 4.1 m/s)
Visibility: 6 or more miles (10+ km)
Ceiling: ceiling and visibility are OK
Clouds: unknown
Weather: no significant weather observed at this time

METAR text: LROP 240700Z 25007KT CAVOK 10/M09 Q1023 NOSIG
Conditions at: LROP (BUCHAREST/OTOPEN, RO) observed 0700 UTC 24 March 2019
Temperature: 10.0°C (50°F)
Dewpoint: -9.0°C (16°F) [RH = 25%]
Pressure (altimeter): 30.21 inches Hg (1023.0 mb)
Winds: from the WSW (250 degrees) at 8 MPH (7 knots; 3.6 m/s)
Visibility: 6 or more miles (10+ km)
Ceiling: ceiling and visibility are OK
Clouds: unknown
Weather: no significant weather observed at this time

METAR text: LROP 240630Z 27003KT 240V300 CAVOK 07/M05 Q1024 NOSIG
Conditions at: LROP (BUCHAREST/OTOPEN, RO) observed 0630 UTC 24 March 2019
Temperature: 7.0°C (45°F)
Dewpoint: -5.0°C (23°F) [RH = 42%]
Pressure (altimeter): 30.24 inches Hg (1024.0 mb)
Winds: from the W (270 degrees) at 3 MPH (3 knots; 1.5 m/s)
Visibility: 6 or more miles (10+ km)
Ceiling: ceiling and visibility are OK
Clouds: unknown
Weather: no significant weather observed at this time

METAR text: LROP 240600Z 29003KT CAVOK 05/M04 Q1023 NOSIG
Conditions at: LROP (BUCHAREST/OTOPEN, RO) observed 0600 UTC 24 March 2019
Temperature: 5.0°C (41°F)
Dewpoint: -4.0°C (25°F) [RH = 52%]
Pressure (altimeter): 30.21 inches Hg (1023.0 mb)
Winds: from the WNW (290 degrees) at 3 MPH (3 knots; 1.5 m/s)
Visibility: 6 or more miles (10+ km)
Ceiling: ceiling and visibility are OK
Clouds: unknown
Weather: no significant weather observed at this time

METAR text: LROP 240530Z 00000KT CAVOK 03/M04 Q1024 NOSIG
Conditions at: LROP (BUCHAREST/OTOPEN, RO) observed 0530 UTC 24 March 2019
Temperature: 3.0°C (37°F)
Dewpoint: -4.0°C (25°F) [RH = 60%]
Pressure (altimeter): 30.24 inches Hg (1024.0 mb)
Winds: calm
Visibility: 6 or more miles (10+ km)
Ceiling: ceiling and visibility are OK
Clouds: unknown
Weather: no significant weather observed at this time

METAR text: LROP 240500Z 30002KT CAVOK 00/M05 Q1024 NOSIG
Conditions at: LROP (BUCHAREST/OTOPEN, RO) observed 0500 UTC 24 March 2019
Temperature: 0.0°C (32°F)
Dewpoint: -5.0°C (23°F) [RH = 69%]
Pressure (altimeter): 30.24 inches Hg (1024.0 mb)
Winds: from the WNW (300 degrees) at 2 MPH (2 knots; 1.0 m/s)
Visibility: 6 or more miles (10+ km)
Ceiling: ceiling and visibility are OK
Clouds: unknown
Weather: no significant weather observed at this time

METAR text: LROP 240430Z 26003KT CAVOK M00/M06 Q1023 NOSIG
Conditions at: LROP (BUCHAREST/OTOPEN, RO) observed 0430 UTC 24 March 2019
Temperature: 0.0°C (32°F)
Dewpoint: -6.0°C (21°F) [RH = 64%]
Pressure (altimeter): 30.21 inches Hg (1023.0 mb)
Winds: from the W (260 degrees) at 3 MPH (3 knots; 1.5 m/s)
Visibility: 6 or more miles (10+ km)
Ceiling: ceiling and visibility are OK
Clouds: unknown
Weather: no significant weather observed at this time

METAR text: LROP 240400Z 26002KT CAVOK 00/M05 Q1023 NOSIG
Conditions at: LROP (BUCHAREST/OTOPEN, RO) observed 0400 UTC 24 March 2019
Temperature: 0.0°C (32°F)
Dewpoint: -5.0°C (23°F) [RH = 69%]
Pressure (altimeter): 30.21 inches Hg (1023.0 mb)
Winds: from the W (260 degrees) at 2 MPH (2 knots; 1.0 m/s)
Visibility: 6 or more miles (10+ km)
Ceiling: ceiling and visibility are OK
Clouds: unknown
Weather: no significant weather observed at this time

METAR text: LROP 240330Z 00000KT CAVOK 00/M06 Q1023 NOSIG
Conditions at: LROP (BUCHAREST/OTOPEN, RO) observed 0330 UTC 24 March 2019
Temperature: 0.0°C (32°F)
Dewpoint: -6.0°C (21°F) [RH = 64%]
Pressure (altimeter): 30.21 inches Hg (1023.0 mb)
Winds: calm
Visibility: 6 or more miles (10+ km)
Ceiling: ceiling and visibility are OK
Clouds: unknown
Weather: no significant weather observed at this time

METAR text: LROP 240300Z 25002KT CAVOK 01/M07 Q1023 NOSIG
Conditions at: LROP (BUCHAREST/OTOPEN, RO) observed 0300 UTC 24 March 2019
Temperature: 1.0°C (34°F)
Dewpoint: -7.0°C (19°F) [RH = 55%]
Pressure (altimeter): 30.21 inches Hg (1023.0 mb)
Winds: from the WSW (250 degrees) at 2 MPH (2 knots; 1.0 m/s)
Visibility: 6 or more miles (10+ km)
Ceiling: ceiling and visibility are OK
Clouds: unknown
Weather: no significant weather observed at this time

METAR text: LROP 240230Z 32001KT CAVOK 01/M08 Q1024 NOSIG
Conditions at: LROP (BUCHAREST/OTOPEN, RO) observed 0230 UTC 24 March 2019
Temperature: 1.0°C (34°F)
Dewpoint: -8.0°C (18°F) [RH = 51%]
Pressure (altimeter): 30.24 inches Hg (1024.0 mb)
Winds: from the NW (320 degrees) at 1 MPH (1 knots; 0.5 m/s)
Visibility: 6 or more miles (10+ km)
Ceiling: ceiling and visibility are OK
Clouds: unknown
Weather: no significant weather observed at this time

METAR text: LROP 240200Z 00000KT CAVOK 02/M08 Q1024 NOSIG
Conditions at: LROP (BUCHAREST/OTOPEN, RO) observed 0200 UTC 24 March 2019
Temperature: 2.0°C (36°F)
Dewpoint: -8.0°C (18°F) [RH = 47%]
Pressure (altimeter): 30.24 inches Hg (1024.0 mb)
Winds: calm
Visibility: 6 or more miles (10+ km)
Ceiling: ceiling and visibility are OK
Clouds: unknown
Weather: no significant weather observed at this time

METAR text: LROP 240130Z VRB02KT CAVOK 01/M07 Q1024 NOSIG
Conditions at: LROP (BUCHAREST/OTOPEN, RO) observed 0130 UTC 24 March 2019
Temperature: 1.0°C (34°F)
Dewpoint: -7.0°C (19°F) [RH = 55%]
Pressure (altimeter): 30.24 inches Hg (1024.0 mb)
Winds: variable direction winds at 2 MPH (2 knots; 1.0 m/s)
Visibility: 6 or more miles (10+ km)
Ceiling: ceiling and visibility are OK
Clouds: unknown
Weather: no significant weather observed at this time

METAR text: LROP 240100Z 02005KT 350V070 CAVOK 03/M09 Q1024 NOSIG
Conditions at: LROP (BUCHAREST/OTOPEN, RO) observed 0100 UTC 24 March 2019
Temperature: 3.0°C (37°F)
Dewpoint: -9.0°C (16°F) [RH = 41%]
Pressure (altimeter): 30.24 inches Hg (1024.0 mb)
Winds: from the NNE (20 degrees) at 6 MPH (5 knots; 2.6 m/s)
Visibility: 6 or more miles (10+ km)
Ceiling: ceiling and visibility are OK
Clouds: unknown
Weather: no significant weather observed at this time

METAR text: LROP 240030Z 12003KT CAVOK 04/M10 Q1024 NOSIG
Conditions at: LROP (BUCHAREST/OTOPEN, RO) observed 0030 UTC 24 March 2019
Temperature: 4.0°C (39°F)
Dewpoint: -10.0°C (14°F) [RH = 35%]
Pressure (altimeter): 30.24 inches Hg (1024.0 mb)
Winds: from the ESE (120 degrees) at 3 MPH (3 knots; 1.5 m/s)
Visibility: 6 or more miles (10+ km)
Ceiling: ceiling and visibility are OK
Clouds: unknown
Weather: no significant weather observed at this time

METAR text: LROP 240000Z 09003KT CAVOK 05/M10 Q1024 NOSIG
Conditions at: LROP (BUCHAREST/OTOPEN, RO) observed 0000 UTC 24 March 2019
Temperature: 5.0°C (41°F)
Dewpoint: -10.0°C (14°F) [RH = 33%]
Pressure (altimeter): 30.24 inches Hg (1024.0 mb)
Winds: from the E (90 degrees) at 3 MPH (3 knots; 1.5 m/s)
Visibility: 6 or more miles (10+ km)
Ceiling: ceiling and visibility are OK
Clouds: unknown
Weather: no significant weather observed at this time

METAR text: LROP 232330Z 11003KT CAVOK 04/M10 Q1024 NOSIG
Conditions at: LROP (BUCHAREST/OTOPEN, RO) observed 2330 UTC 23 March 2019
Temperature: 4.0°C (39°F)
Dewpoint: -10.0°C (14°F) [RH = 35%]
Pressure (altimeter): 30.24 inches Hg (1024.0 mb)
Winds: from the ESE (110 degrees) at 3 MPH (3 knots; 1.5 m/s)
Visibility: 6 or more miles (10+ km)
Ceiling: ceiling and visibility are OK
Clouds: unknown
Weather: no significant weather observed at this time

METAR text: LROP 232300Z 12003KT CAVOK 06/M10 Q1025 NOSIG
Conditions at: LROP (BUCHAREST/OTOPEN, RO) observed 2300 UTC 23 March 2019
Temperature: 6.0°C (43°F)
Dewpoint: -10.0°C (14°F) [RH = 31%]
Pressure (altimeter): 30.27 inches Hg (1025.0 mb)
Winds: from the ESE (120 degrees) at 3 MPH (3 knots; 1.5 m/s)
Visibility: 6 or more miles (10+ km)
Ceiling: ceiling and visibility are OK
Clouds: unknown
Weather: no significant weather observed at this time

METAR text: LROP 232230Z 12005KT CAVOK 07/M12 Q1024 NOSIG
Conditions at: LROP (BUCHAREST/OTOPEN, RO) observed 2230 UTC 23 March 2019
Temperature: 7.0°C (45°F)
Dewpoint: -12.0°C (10°F) [RH = 24%]
Pressure (altimeter): 30.24 inches Hg (1024.0 mb)
Winds: from the ESE (120 degrees) at 6 MPH (5 knots; 2.6 m/s)
Visibility: 6 or more miles (10+ km)
Ceiling: ceiling and visibility are OK
Clouds: unknown
Weather: no significant weather observed at this time

METAR text: LROP 232200Z AUTO 13007KT 9999 NCD 07/M11 Q1025 NOSIG
Conditions at: LROP (BUCHAREST/OTOPEN, RO) observed 2200 UTC 23 March 2019
Temperature: 7.0°C (45°F)
Dewpoint: -11.0°C (12°F) [RH = 26%]
Pressure (altimeter): 30.27 inches Hg (1025.0 mb)
Winds: from the SE (130 degrees) at 8 MPH (7 knots; 3.6 m/s)
Visibility: 6 or more miles (10+ km)
Ceiling: at least 12,000 feet AGL
Clouds: sky clear below 12,000 feet AGL
Weather: no significant weather observed at this time

METAR text: LROP 232130Z 12005KT CAVOK 08/M11 Q1025 NOSIG
Conditions at: LROP (BUCHAREST/OTOPEN, RO) observed 2130 UTC 23 March 2019
Temperature: 8.0°C (46°F)
Dewpoint: -11.0°C (12°F) [RH = 25%]
Pressure (altimeter): 30.27 inches Hg (1025.0 mb)
Winds: from the ESE (120 degrees) at 6 MPH (5 knots; 2.6 m/s)
Visibility: 6 or more miles (10+ km)
Ceiling: ceiling and visibility are OK
Clouds: unknown
Weather: no significant weather observed at this time

METAR text: LROP 232100Z 11006KT CAVOK 08/M12 Q1025 NOSIG
Conditions at: LROP (BUCHAREST/OTOPEN, RO) observed 2100 UTC 23 March 2019
Temperature: 8.0°C (46°F)
Dewpoint: -12.0°C (10°F) [RH = 23%]
Pressure (altimeter): 30.27 inches Hg (1025.0 mb)
Winds: from the ESE (110 degrees) at 7 MPH (6 knots; 3.1 m/s)
Visibility: 6 or more miles (10+ km)
Ceiling: ceiling and visibility are OK
Clouds: unknown
Weather: no significant weather observed at this time

METAR text: LROP 232030Z 10006KT CAVOK 08/M11 Q1024 NOSIG
Conditions at: LROP (BUCHAREST/OTOPEN, RO) observed 2030 UTC 23 March 2019
Temperature: 8.0°C (46°F)
Dewpoint: -11.0°C (12°F) [RH = 25%]
Pressure (altimeter): 30.24 inches Hg (1024.0 mb)
Winds: from the E (100 degrees) at 7 MPH (6 knots; 3.1 m/s)
Visibility: 6 or more miles (10+ km)
Ceiling: ceiling and visibility are OK
Clouds: unknown
Weather: no significant weather observed at this time

METAR text: LROP 232000Z 10007KT CAVOK 09/M11 Q1024 NOSIG
Conditions at: LROP (BUCHAREST/OTOPEN, RO) observed 2000 UTC 23 March 2019
Temperature: 9.0°C (48°F)
Dewpoint: -11.0°C (12°F) [RH = 23%]
Pressure (altimeter): 30.24 inches Hg (1024.0 mb)
Winds: from the E (100 degrees) at 8 MPH (7 knots; 3.6 m/s)
Visibility: 6 or more miles (10+ km)
Ceiling: ceiling and visibility are OK
Clouds: unknown
Weather: no significant weather observed at this time

METAR text: LROP 231930Z 10006KT CAVOK 09/M09 Q1024 NOSIG
Conditions at: LROP (BUCHAREST/OTOPEN, RO) observed 1930 UTC 23 March 2019
Temperature: 9.0°C (48°F)
Dewpoint: -9.0°C (16°F) [RH = 27%]
Pressure (altimeter): 30.24 inches Hg (1024.0 mb)
Winds: from the E (100 degrees) at 7 MPH (6 knots; 3.1 m/s)
Visibility: 6 or more miles (10+ km)
Ceiling: ceiling and visibility are OK
Clouds: unknown
Weather: no significant weather observed at this time

METAR text: LROP 231900Z 10009KT CAVOK 10/M09 Q1024 NOSIG
Conditions at: LROP (BUCHAREST/OTOPEN, RO) observed 1900 UTC 23 March 2019
Temperature: 10.0°C (50°F)
Dewpoint: -9.0°C (16°F) [RH = 25%]
Pressure (altimeter): 30.24 inches Hg (1024.0 mb)
Winds: from the E (100 degrees) at 10 MPH (9 knots; 4.6 m/s)
Visibility: 6 or more miles (10+ km)
Ceiling: ceiling and visibility are OK
Clouds: unknown
Weather: no significant weather observed at this time

METAR text: LROP 231830Z 09008KT CAVOK 11/M09 Q1024 NOSIG
Conditions at: LROP (BUCHAREST/OTOPEN, RO) observed 1830 UTC 23 March 2019
Temperature: 11.0°C (52°F)
Dewpoint: -9.0°C (16°F) [RH = 24%]
Pressure (altimeter): 30.24 inches Hg (1024.0 mb)
Winds: from the E (90 degrees) at 9 MPH (8 knots; 4.1 m/s)
Visibility: 6 or more miles (10+ km)
Ceiling: ceiling and visibility are OK
Clouds: unknown
Weather: no significant weather observed at this time

METAR text: LROP 231800Z 09009KT CAVOK 12/M08 Q1023 NOSIG
Conditions at: LROP (BUCHAREST/OTOPEN, RO) observed 1800 UTC 23 March 2019
Temperature: 12.0°C (54°F)
Dewpoint: -8.0°C (18°F) [RH = 24%]
Pressure (altimeter): 30.21 inches Hg (1023.0 mb)
Winds: from the E (90 degrees) at 10 MPH (9 knots; 4.6 m/s)
Visibility: 6 or more miles (10+ km)
Ceiling: ceiling and visibility are OK
Clouds: unknown
Weather: no significant weather observed at this time

METAR text: LROP 231730Z 10008KT CAVOK 12/M08 Q1023 NOSIG
Conditions at: LROP (BUCHAREST/OTOPEN, RO) observed 1730 UTC 23 March 2019
Temperature: 12.0°C (54°F)
Dewpoint: -8.0°C (18°F) [RH = 24%]
Pressure (altimeter): 30.21 inches Hg (1023.0 mb)
Winds: from the E (100 degrees) at 9 MPH (8 knots; 4.1 m/s)
Visibility: 6 or more miles (10+ km)
Ceiling: ceiling and visibility are OK
Clouds: unknown
Weather: no significant weather observed at this time

METAR text: LROP 231700Z 11007KT CAVOK 13/M07 Q1023 NOSIG
Conditions at: LROP (BUCHAREST/OTOPEN, RO) observed 1700 UTC 23 March 2019
Temperature: 13.0°C (55°F)
Dewpoint: -7.0°C (19°F) [RH = 24%]
Pressure (altimeter): 30.21 inches Hg (1023.0 mb)
Winds: from the ESE (110 degrees) at 8 MPH (7 knots; 3.6 m/s)
Visibility: 6 or more miles (10+ km)
Ceiling: ceiling and visibility are OK
Clouds: unknown
Weather: no significant weather observed at this time

METAR text: LROP 231630Z 10010KT CAVOK 13/M07 Q1023 NOSIG
Conditions at: LROP (BUCHAREST/OTOPEN, RO) observed 1630 UTC 23 March 2019
Temperature: 13.0°C (55°F)
Dewpoint: -7.0°C (19°F) [RH = 24%]
Pressure (altimeter): 30.21 inches Hg (1023.0 mb)
Winds: from the E (100 degrees) at 12 MPH (10 knots; 5.1 m/s)
Visibility: 6 or more miles (10+ km)
Ceiling: ceiling and visibility are OK
Clouds: unknown
Weather: no significant weather observed at this time

METAR text: LROP 231600Z 10011KT CAVOK 13/M06 Q1022 NOSIG
Conditions at: LROP (BUCHAREST/OTOPEN, RO) observed 1600 UTC 23 March 2019
Temperature: 13.0°C (55°F)
Dewpoint: -6.0°C (21°F) [RH = 26%]
Pressure (altimeter): 30.18 inches Hg (1022.0 mb)
Winds: from the E (100 degrees) at 13 MPH (11 knots; 5.7 m/s)
Visibility: 6 or more miles (10+ km)
Ceiling: ceiling and visibility are OK
Clouds: unknown
Weather: no significant weather observed at this time

METAR text: LROP 231530Z 10015KT CAVOK 14/M04 Q1022 NOSIG
Conditions at: LROP (BUCHAREST/OTOPEN, RO) observed 1530 UTC 23 March 2019
Temperature: 14.0°C (57°F)
Dewpoint: -4.0°C (25°F) [RH = 28%]
Pressure (altimeter): 30.18 inches Hg (1022.0 mb)
Winds: from the E (100 degrees) at 17 MPH (15 knots; 7.7 m/s)
Visibility: 6 or more miles (10+ km)
Ceiling: ceiling and visibility are OK
Clouds: unknown
Weather: no significant weather observed at this time

METAR text: LROP 231500Z 12007KT 9999 FEW052TCU 15/01 Q1022 NOSIG
Conditions at: LROP (BUCHAREST/OTOPEN, RO) observed 1500 UTC 23 March 2019
Temperature: 15.0°C (59°F)
Dewpoint: 1.0°C (34°F) [RH = 39%]
Pressure (altimeter): 30.18 inches Hg (1022.0 mb)
Winds: from the ESE (120 degrees) at 8 MPH (7 knots; 3.6 m/s)
Visibility: 6 or more miles (10+ km)
Ceiling: at least 12,000 feet AGL
Clouds: few clouds at 5200 feet AGL
Weather: no significant weather observed at this time

METAR text: LROP 231430Z 14003KT 070V180 9000 NSC 16/02 Q1022 NOSIG
Conditions at: LROP (BUCHAREST/OTOPEN, RO) observed 1430 UTC 23 March 2019
Temperature: 16.0°C (61°F)
Dewpoint: 2.0°C (36°F) [RH = 39%]
Pressure (altimeter): 30.18 inches Hg (1022.0 mb)
Winds: from the SE (140 degrees) at 3 MPH (3 knots; 1.5 m/s)
Visibility: 6 miles ( 9 km)
Ceiling: at least 12,000 feet AGL
Clouds: sky clear below 12,000 feet AGL
Weather: no significant weather observed at this time

METAR text: LROP 231400Z 26004KT CAVOK 16/02 Q1022 NOSIG
Conditions at: LROP (BUCHAREST/OTOPEN, RO) observed 1400 UTC 23 March 2019
Temperature: 16.0°C (61°F)
Dewpoint: 2.0°C (36°F) [RH = 39%]
Pressure (altimeter): 30.18 inches Hg (1022.0 mb)
Winds: from the W (260 degrees) at 5 MPH (4 knots; 2.1 m/s)
Visibility: 6 or more miles (10+ km)
Ceiling: ceiling and visibility are OK
Clouds: unknown
Weather: no significant weather observed at this time

METAR text: LROP 231330Z VRB01KT CAVOK 15/02 Q1022 NOSIG
Conditions at: LROP (BUCHAREST/OTOPEN, RO) observed 1330 UTC 23 March 2019
Temperature: 15.0°C (59°F)
Dewpoint: 2.0°C (36°F) [RH = 41%]
Pressure (altimeter): 30.18 inches Hg (1022.0 mb)
Winds: variable direction winds at 1 MPH (1 knots; 0.5 m/s)
Visibility: 6 or more miles (10+ km)
Ceiling: ceiling and visibility are OK
Clouds: unknown
Weather: no significant weather observed at this time

METAR text: LROP 231300Z 25005KT 170V290 CAVOK 15/02 Q1022 NOSIG
Conditions at: LROP (BUCHAREST/OTOPEN, RO) observed 1300 UTC 23 March 2019
Temperature: 15.0°C (59°F)
Dewpoint: 2.0°C (36°F) [RH = 41%]
Pressure (altimeter): 30.18 inches Hg (1022.0 mb)
Winds: from the WSW (250 degrees) at 6 MPH (5 knots; 2.6 m/s)
Visibility: 6 or more miles (10+ km)
Ceiling: ceiling and visibility are OK
Clouds: unknown
Weather: no significant weather observed at this time

METAR text: LROP 231230Z VRB01KT CAVOK 16/02 Q1023 NOSIG
Conditions at: LROP (BUCHAREST/OTOPEN, RO) observed 1230 UTC 23 March 2019
Temperature: 16.0°C (61°F)
Dewpoint: 2.0°C (36°F) [RH = 39%]
Pressure (altimeter): 30.21 inches Hg (1023.0 mb)
Winds: variable direction winds at 1 MPH (1 knots; 0.5 m/s)
Visibility: 6 or more miles (10+ km)
Ceiling: ceiling and visibility are OK
Clouds: unknown
Weather: no significant weather observed at this time

METAR text: LROP 231200Z 21005KT CAVOK 15/01 Q1023 NOSIG
Conditions at: LROP (BUCHAREST/OTOPEN, RO) observed 1200 UTC 23 March 2019
Temperature: 15.0°C (59°F)
Dewpoint: 1.0°C (34°F) [RH = 39%]
Pressure (altimeter): 30.21 inches Hg (1023.0 mb)
Winds: from the SSW (210 degrees) at 6 MPH (5 knots; 2.6 m/s)
Visibility: 6 or more miles (10+ km)
Ceiling: ceiling and visibility are OK
Clouds: unknown
Weather: no significant weather observed at this time

METAR text: LROP 231130Z 23004KT 160V280 CAVOK 15/02 Q1024 NOSIG
Conditions at: LROP (BUCHAREST/OTOPEN, RO) observed 1130 UTC 23 March 2019
Temperature: 15.0°C (59°F)
Dewpoint: 2.0°C (36°F) [RH = 41%]
Pressure (altimeter): 30.24 inches Hg (1024.0 mb)
Winds: from the SW (230 degrees) at 5 MPH (4 knots; 2.1 m/s)
Visibility: 6 or more miles (10+ km)
Ceiling: ceiling and visibility are OK
Clouds: unknown
Weather: no significant weather observed at this time

METAR text: LROP 231100Z VRB03KT CAVOK 15/02 Q1024 NOSIG
Conditions at: LROP (BUCHAREST/OTOPEN, RO) observed 1100 UTC 23 March 2019
Temperature: 15.0°C (59°F)
Dewpoint: 2.0°C (36°F) [RH = 41%]
Pressure (altimeter): 30.24 inches Hg (1024.0 mb)
Winds: variable direction winds at 3 MPH (3 knots; 1.5 m/s)
Visibility: 6 or more miles (10+ km)
Ceiling: ceiling and visibility are OK
Clouds: unknown
Weather: no significant weather observed at this time

METAR text: LROP 231030Z AUTO 11005KT 070V200 9000 NCD 14/03 Q1024 NOSIG
Conditions at: LROP (BUCHAREST/OTOPEN, RO) observed 1030 UTC 23 March 2019
Temperature: 14.0°C (57°F)
Dewpoint: 3.0°C (37°F) [RH = 47%]
Pressure (altimeter): 30.24 inches Hg (1024.0 mb)
Winds: from the ESE (110 degrees) at 6 MPH (5 knots; 2.6 m/s)
Visibility: 6 miles ( 9 km)
Ceiling: at least 12,000 feet AGL
Clouds: sky clear below 12,000 feet AGL
Weather: no significant weather observed at this time

METAR text: LROP 231000Z 11005KT 050V160 CAVOK 13/03 Q1025 NOSIG
Conditions at: LROP (BUCHAREST/OTOPEN, RO) observed 1000 UTC 23 March 2019
Temperature: 13.0°C (55°F)
Dewpoint: 3.0°C (37°F) [RH = 51%]
Pressure (altimeter): 30.27 inches Hg (1025.0 mb)
Winds: from the ESE (110 degrees) at 6 MPH (5 knots; 2.6 m/s)
Visibility: 6 or more miles (10+ km)
Ceiling: ceiling and visibility are OK
Clouds: unknown
Weather: no significant weather observed at this time

METAR text: LROP 230930Z 12007KT CAVOK 13/03 Q1025 NOSIG
Conditions at: LROP (BUCHAREST/OTOPEN, RO) observed 0930 UTC 23 March 2019
Temperature: 13.0°C (55°F)
Dewpoint: 3.0°C (37°F) [RH = 51%]
Pressure (altimeter): 30.27 inches Hg (1025.0 mb)
Winds: from the ESE (120 degrees) at 8 MPH (7 knots; 3.6 m/s)
Visibility: 6 or more miles (10+ km)
Ceiling: ceiling and visibility are OK
Clouds: unknown
Weather: no significant weather observed at this time

METAR text: LROP 230900Z 08008KT CAVOK 13/03 Q1025 NOSIG
Conditions at: LROP (BUCHAREST/OTOPEN, RO) observed 0900 UTC 23 March 2019
Temperature: 13.0°C (55°F)
Dewpoint: 3.0°C (37°F) [RH = 51%]
Pressure (altimeter): 30.27 inches Hg (1025.0 mb)
Winds: from the E (80 degrees) at 9 MPH (8 knots; 4.1 m/s)
Visibility: 6 or more miles (10+ km)
Ceiling: ceiling and visibility are OK
Clouds: unknown
Weather: no significant weather observed at this time

METAR text: LROP 230830Z 08005KT 020V130 CAVOK 12/03 Q1025 NOSIG
Conditions at: LROP (BUCHAREST/OTOPEN, RO) observed 0830 UTC 23 March 2019
Temperature: 12.0°C (54°F)
Dewpoint: 3.0°C (37°F) [RH = 54%]
Pressure (altimeter): 30.27 inches Hg (1025.0 mb)
Winds: from the E (80 degrees) at 6 MPH (5 knots; 2.6 m/s)
Visibility: 6 or more miles (10+ km)
Ceiling: ceiling and visibility are OK
Clouds: unknown
Weather: no significant weather observed at this time

METAR text: LROP 230800Z 10007KT 070V130 CAVOK 12/03 Q1025 NOSIG
Conditions at: LROP (BUCHAREST/OTOPEN, RO) observed 0800 UTC 23 March 2019
Temperature: 12.0°C (54°F)
Dewpoint: 3.0°C (37°F) [RH = 54%]
Pressure (altimeter): 30.27 inches Hg (1025.0 mb)
Winds: from the E (100 degrees) at 8 MPH (7 knots; 3.6 m/s)
Visibility: 6 or more miles (10+ km)
Ceiling: ceiling and visibility are OK
Clouds: unknown
Weather: no significant weather observed at this time

METAR text: LROP 230730Z 17003KT 120V210 CAVOK 12/04 Q1026 NOSIG
Conditions at: LROP (BUCHAREST/OTOPEN, RO) observed 0730 UTC 23 March 2019
Temperature: 12.0°C (54°F)
Dewpoint: 4.0°C (39°F) [RH = 58%]
Pressure (altimeter): 30.30 inches Hg (1026.0 mb)
Winds: from the S (170 degrees) at 3 MPH (3 knots; 1.5 m/s)
Visibility: 6 or more miles (10+ km)
Ceiling: ceiling and visibility are OK
Clouds: unknown
Weather: no significant weather observed at this time

METAR text: LROP 230700Z 23003KT 210V270 9000 NSC 11/04 Q1025 NOSIG
Conditions at: LROP (BUCHAREST/OTOPEN, RO) observed 0700 UTC 23 March 2019
Temperature: 11.0°C (52°F)
Dewpoint: 4.0°C (39°F) [RH = 62%]
Pressure (altimeter): 30.27 inches Hg (1025.0 mb)
Winds: from the SW (230 degrees) at 3 MPH (3 knots; 1.5 m/s)
Visibility: 6 miles ( 9 km)
Ceiling: at least 12,000 feet AGL
Clouds: sky clear below 12,000 feet AGL
Weather: no significant weather observed at this time

METAR text: LROP 230630Z 27003KT 9000 NSC 09/03 Q1025 NOSIG
Conditions at: LROP (BUCHAREST/OTOPEN, RO) observed 0630 UTC 23 March 2019
Temperature: 9.0°C (48°F)
Dewpoint: 3.0°C (37°F) [RH = 66%]
Pressure (altimeter): 30.27 inches Hg (1025.0 mb)
Winds: from the W (270 degrees) at 3 MPH (3 knots; 1.5 m/s)
Visibility: 6 miles ( 9 km)
Ceiling: at least 12,000 feet AGL
Clouds: sky clear below 12,000 feet AGL
Weather: no significant weather observed at this time

METAR text: LROP 230600Z 24002KT 9000 NSC 07/02 Q1025 NOSIG
Conditions at: LROP (BUCHAREST/OTOPEN, RO) observed 0600 UTC 23 March 2019
Temperature: 7.0°C (45°F)
Dewpoint: 2.0°C (36°F) [RH = 70%]
Pressure (altimeter): 30.27 inches Hg (1025.0 mb)
Winds: from the WSW (240 degrees) at 2 MPH (2 knots; 1.0 m/s)
Visibility: 6 miles ( 9 km)
Ceiling: at least 12,000 feet AGL
Clouds: sky clear below 12,000 feet AGL
Weather: no significant weather observed at this time

METAR text: LROP 230530Z 28004KT 250V310 9000 NSC 05/02 Q1025 NOSIG
Conditions at: LROP (BUCHAREST/OTOPEN, RO) observed 0530 UTC 23 March 2019
Temperature: 5.0°C (41°F)
Dewpoint: 2.0°C (36°F) [RH = 81%]
Pressure (altimeter): 30.27 inches Hg (1025.0 mb)
Winds: from the W (280 degrees) at 5 MPH (4 knots; 2.1 m/s)
Visibility: 6 miles ( 9 km)
Ceiling: at least 12,000 feet AGL
Clouds: sky clear below 12,000 feet AGL
Weather: no significant weather observed at this time

METAR text: LROP 230500Z 00000KT 9000 NSC 03/01 Q1025 TEMPO 5000 BR
Conditions at: LROP (BUCHAREST/OTOPEN, RO) observed 0500 UTC 23 March 2019
Temperature: 3.0°C (37°F)
Dewpoint: 1.0°C (34°F) [RH = 87%]
Pressure (altimeter): 30.27 inches Hg (1025.0 mb)
Winds: calm
Visibility: 6 miles ( 9 km)
Ceiling: at least 12,000 feet AGL
Clouds: sky clear below 12,000 feet AGL
Weather: no significant weather observed at this time

METAR text: LROP 230430Z VRB02KT 8000 NSC 02/01 Q1025 TEMPO 5000 BR
Conditions at: LROP (BUCHAREST/OTOPEN, RO) observed 0430 UTC 23 March 2019
Temperature: 2.0°C (36°F)
Dewpoint: 1.0°C (34°F) [RH = 93%]
Pressure (altimeter): 30.27 inches Hg (1025.0 mb)
Winds: variable direction winds at 2 MPH (2 knots; 1.0 m/s)
Visibility: 5 miles ( 8 km)
Ceiling: at least 12,000 feet AGL
Clouds: sky clear below 12,000 feet AGL
Weather: no significant weather observed at this time

METAR text: LROP 230400Z 28005KT 7000 NSC 02/01 Q1025 TEMPO 5000 BR
Conditions at: LROP (BUCHAREST/OTOPEN, RO) observed 0400 UTC 23 March 2019
Temperature: 2.0°C (36°F)
Dewpoint: 1.0°C (34°F) [RH = 93%]
Pressure (altimeter): 30.27 inches Hg (1025.0 mb)
Winds: from the W (280 degrees) at 6 MPH (5 knots; 2.6 m/s)
Visibility: 4 miles ( 7 km)
Ceiling: at least 12,000 feet AGL
Clouds: sky clear below 12,000 feet AGL
Weather: no significant weather observed at this time

METAR text: LROP 230330Z 00000KT 8000 NSC 03/01 Q1025 TEMPO 5000 BR
Conditions at: LROP (BUCHAREST/OTOPEN, RO) observed 0330 UTC 23 March 2019
Temperature: 3.0°C (37°F)
Dewpoint: 1.0°C (34°F) [RH = 87%]
Pressure (altimeter): 30.27 inches Hg (1025.0 mb)
Winds: calm
Visibility: 5 miles ( 8 km)
Ceiling: at least 12,000 feet AGL
Clouds: sky clear below 12,000 feet AGL
Weather: no significant weather observed at this time

METAR text: LROP 230300Z 30004KT 8000 NSC 03/01 Q1025 NOSIG
Conditions at: LROP (BUCHAREST/OTOPEN, RO) observed 0300 UTC 23 March 2019
Temperature: 3.0°C (37°F)
Dewpoint: 1.0°C (34°F) [RH = 87%]
Pressure (altimeter): 30.27 inches Hg (1025.0 mb)
Winds: from the WNW (300 degrees) at 5 MPH (4 knots; 2.1 m/s)
Visibility: 5 miles ( 8 km)
Ceiling: at least 12,000 feet AGL
Clouds: sky clear below 12,000 feet AGL
Weather: no significant weather observed at this time

METAR text: LROP 230230Z 28004KT 8000 NSC 04/02 Q1025 NOSIG
Conditions at: LROP (BUCHAREST/OTOPEN, RO) observed 0230 UTC 23 March 2019
Temperature: 4.0°C (39°F)
Dewpoint: 2.0°C (36°F) [RH = 87%]
Pressure (altimeter): 30.27 inches Hg (1025.0 mb)
Winds: from the W (280 degrees) at 5 MPH (4 knots; 2.1 m/s)
Visibility: 5 miles ( 8 km)
Ceiling: at least 12,000 feet AGL
Clouds: sky clear below 12,000 feet AGL
Weather: no significant weather observed at this time

METAR text: LROP 230200Z 29003KT CAVOK 03/01 Q1025 NOSIG
Conditions at: LROP (BUCHAREST/OTOPEN, RO) observed 0200 UTC 23 March 2019
Temperature: 3.0°C (37°F)
Dewpoint: 1.0°C (34°F) [RH = 87%]
Pressure (altimeter): 30.27 inches Hg (1025.0 mb)
Winds: from the WNW (290 degrees) at 3 MPH (3 knots; 1.5 m/s)
Visibility: 6 or more miles (10+ km)
Ceiling: ceiling and visibility are OK
Clouds: unknown
Weather: no significant weather observed at this time

METAR text: LROP 230130Z 00000KT CAVOK 06/02 Q1025 NOSIG
Conditions at: LROP (BUCHAREST/OTOPEN, RO) observed 0130 UTC 23 March 2019
Temperature: 6.0°C (43°F)
Dewpoint: 2.0°C (36°F) [RH = 75%]
Pressure (altimeter): 30.27 inches Hg (1025.0 mb)
Winds: calm
Visibility: 6 or more miles (10+ km)
Ceiling: ceiling and visibility are OK
Clouds: unknown
Weather: no significant weather observed at this time

METAR text: LROP 230100Z 11007KT CAVOK 07/03 Q1025 NOSIG
Conditions at: LROP (BUCHAREST/OTOPEN, RO) observed 0100 UTC 23 March 2019
Temperature: 7.0°C (45°F)
Dewpoint: 3.0°C (37°F) [RH = 76%]
Pressure (altimeter): 30.27 inches Hg (1025.0 mb)
Winds: from the ESE (110 degrees) at 8 MPH (7 knots; 3.6 m/s)
Visibility: 6 or more miles (10+ km)
Ceiling: ceiling and visibility are OK
Clouds: unknown
Weather: no significant weather observed at this time

METAR text: LROP 230030Z 00000KT 9000 NSC 05/02 Q1025 NOSIG
Conditions at: LROP (BUCHAREST/OTOPEN, RO) observed 0030 UTC 23 March 2019
Temperature: 5.0°C (41°F)
Dewpoint: 2.0°C (36°F) [RH = 81%]
Pressure (altimeter): 30.27 inches Hg (1025.0 mb)
Winds: calm
Visibility: 6 miles ( 9 km)
Ceiling: at least 12,000 feet AGL
Clouds: sky clear below 12,000 feet AGL
Weather: no significant weather observed at this time

METAR text: LROP 230000Z 00000KT 9000 NSC 06/02 Q1026 NOSIG
Conditions at: LROP (BUCHAREST/OTOPEN, RO) observed 0000 UTC 23 March 2019
Temperature: 6.0°C (43°F)
Dewpoint: 2.0°C (36°F) [RH = 75%]
Pressure (altimeter): 30.30 inches Hg (1026.0 mb)
Winds: calm
Visibility: 6 miles ( 9 km)
Ceiling: at least 12,000 feet AGL
Clouds: sky clear below 12,000 feet AGL
Weather: no significant weather observed at this time

METAR text: LROP 222330Z 03004KT 360V060 CAVOK 06/02 Q1026 NOSIG
Conditions at: LROP (BUCHAREST/OTOPEN, RO) observed 2330 UTC 22 March 2019
Temperature: 6.0°C (43°F)
Dewpoint: 2.0°C (36°F) [RH = 75%]
Pressure (altimeter): 30.30 inches Hg (1026.0 mb)
Winds: from the NNE (30 degrees) at 5 MPH (4 knots; 2.1 m/s)
Visibility: 6 or more miles (10+ km)
Ceiling: ceiling and visibility are OK
Clouds: unknown
Weather: no significant weather observed at this time

METAR text: LROP 222300Z 33004KT CAVOK 06/02 Q1026 NOSIG
Conditions at: LROP (BUCHAREST/OTOPEN, RO) observed 2300 UTC 22 March 2019
Temperature: 6.0°C (43°F)
Dewpoint: 2.0°C (36°F) [RH = 75%]
Pressure (altimeter): 30.30 inches Hg (1026.0 mb)
Winds: from the NNW (330 degrees) at 5 MPH (4 knots; 2.1 m/s)
Visibility: 6 or more miles (10+ km)
Ceiling: ceiling and visibility are OK
Clouds: unknown
Weather: no significant weather observed at this time

METAR text: LROP 222230Z 25001KT CAVOK 07/02 Q1025 NOSIG
Conditions at: LROP (BUCHAREST/OTOPEN, RO) observed 2230 UTC 22 March 2019
Temperature: 7.0°C (45°F)
Dewpoint: 2.0°C (36°F) [RH = 70%]
Pressure (altimeter): 30.27 inches Hg (1025.0 mb)
Winds: from the WSW (250 degrees) at 1 MPH (1 knots; 0.5 m/s)
Visibility: 6 or more miles (10+ km)
Ceiling: ceiling and visibility are OK
Clouds: unknown
Weather: no significant weather observed at this time

METAR text: LROP 222200Z 29003KT CAVOK 07/02 Q1025 NOSIG
Conditions at: LROP (BUCHAREST/OTOPEN, RO) observed 2200 UTC 22 March 2019
Temperature: 7.0°C (45°F)
Dewpoint: 2.0°C (36°F) [RH = 70%]
Pressure (altimeter): 30.27 inches Hg (1025.0 mb)
Winds: from the WNW (290 degrees) at 3 MPH (3 knots; 1.5 m/s)
Visibility: 6 or more miles (10+ km)
Ceiling: ceiling and visibility are OK
Clouds: unknown
Weather: no significant weather observed at this time

METAR text: LROP 222130Z 26009KT CAVOK 08/02 Q1025 NOSIG
Conditions at: LROP (BUCHAREST/OTOPEN, RO) observed 2130 UTC 22 March 2019
Temperature: 8.0°C (46°F)
Dewpoint: 2.0°C (36°F) [RH = 66%]
Pressure (altimeter): 30.27 inches Hg (1025.0 mb)
Winds: from the W (260 degrees) at 10 MPH (9 knots; 4.6 m/s)
Visibility: 6 or more miles (10+ km)
Ceiling: ceiling and visibility are OK
Clouds: unknown
Weather: no significant weather observed at this time

Forecast for: LROP (BUCHAREST/OTOPEN, RO)
Text: TAF LROP 240500Z 2406/2506 VRB04KT CAVOK
Forecast period: 0600 to 0800 UTC 24 March 2019
Forecast type: FROM: standard forecast or significant change
Winds: variable direction winds at 5 MPH (4 knots; 2.1 m/s)
Visibility: 6 or more miles 10+ km)
Ceiling: unknown
Clouds: missing
Weather: NSW  (no significant weather)
Text: BECMG 2408/2410 26012KT
Forecast period: 0800 to 1600 UTC 24 March 2019
Forecast type: BECOMING: Conditions expected to become as follows by 1000 UTC 24 March 2019
Winds: from the W (260 degrees) at 14 MPH (12 knots; 6.2 m/s)
Visibility: 6 or more miles 10+ km)
Ceiling: unknown
Clouds: missing
Weather: NSW  (no significant weather)
Text: BECMG 2416/2418 VRB04KT
Forecast period: 1600 UTC 24 March 2019 to 0600 UTC 25 March 2019
Forecast type: BECOMING: Conditions expected to become as follows by 1800 UTC 24 March 2019
Winds: variable direction winds at 5 MPH (4 knots; 2.1 m/s)
Visibility: 6 or more miles 10+ km)
Ceiling: unknown
Clouds: missing
Weather: NSW  (no significant weather)